createdAt,value
2022-11-15T00:01:16.754Z,83.76
2022-11-15T00:04:03.391Z,83.41
2022-11-15T00:06:49.631Z,82.11
2022-11-15T00:09:44.884Z,83.30
2022-11-15T00:12:33.734Z,85.04
2022-11-15T00:15:26.155Z,85.86
2022-11-15T00:18:16.560Z,86.83
2022-11-15T00:21:08.590Z,85.60
2022-11-15T00:23:57.311Z,83.90
2022-11-15T00:26:43.878Z,82.97
2022-11-15T00:29:30.146Z,80.16
2022-11-15T00:32:16.195Z,78.81
2022-11-15T00:35:02.638Z,82.01
2022-11-15T00:37:49.176Z,82.98
2022-11-15T00:40:35.946Z,80.76
2022-11-15T00:43:22.452Z,80.07
2022-11-15T00:46:09.756Z,79.12
2022-11-15T00:48:55.761Z,78.45
2022-11-15T00:51:44.579Z,77.32
2022-11-15T00:54:30.739Z,76.31
2022-11-15T00:57:16.832Z,75.30
2022-11-15T01:00:03.061Z,74.60
2022-11-15T01:02:49.324Z,73.41
2022-11-15T01:05:47.676Z,72.86
2022-11-15T01:08:34.018Z,74.20
2022-11-15T01:11:20.383Z,77.89
2022-11-15T01:14:06.995Z,79.09
2022-11-15T01:16:56.515Z,79.40
2022-11-15T01:19:42.805Z,81.15
2022-11-15T01:22:29.174Z,81.63
2022-11-15T01:25:15.589Z,82.03
2022-11-15T01:28:01.902Z,82.84
2022-11-15T01:30:48.493Z,83.11
2022-11-15T01:33:39.511Z,83.33
2022-11-15T01:36:25.669Z,82.98
2022-11-15T01:39:35.762Z,82.84
2022-11-15T01:42:21.934Z,83.13
2022-11-15T01:45:16.268Z,81.78
2022-11-15T01:48:02.542Z,82.83
2022-11-15T01:50:50.440Z,82.17
2022-11-15T01:53:40.396Z,82.17
2022-11-15T01:56:31.425Z,79.93
2022-11-15T01:59:17.649Z,80.68
2022-11-15T02:02:04.088Z,79.81
2022-11-15T02:04:50.393Z,80.06
2022-11-15T02:07:37.599Z,80.76
2022-11-15T02:10:25.645Z,81.47
2022-11-15T02:13:12.320Z,80.99
2022-11-15T02:16:28.573Z,81.29
2022-11-15T02:19:30.425Z,81.24
2022-11-15T02:22:25.814Z,81.32
2022-11-15T02:25:40.588Z,78.03
2022-11-15T02:28:43.594Z,77.40
2022-11-15T02:31:47.468Z,75.81
2022-11-15T02:34:56.369Z,74.87
2022-11-15T02:37:57.205Z,72.93
2022-11-15T02:40:52.590Z,73.46
2022-11-15T02:43:59.058Z,72.74
2022-11-15T02:47:15.288Z,71.81
2022-11-15T02:50:11.336Z,70.92
2022-11-15T02:52:58.468Z,71.74
2022-11-15T02:55:48.251Z,69.13
2022-11-15T02:59:02.857Z,69.61
2022-11-15T03:02:06.278Z,69.83
2022-11-15T03:05:11.366Z,71.83
2022-11-15T03:08:32.900Z,71.21
2022-11-15T03:11:21.183Z,73.01
2022-11-15T03:14:21.485Z,72.50
2022-11-15T03:17:14.935Z,72.31
2022-11-15T03:20:05.371Z,72.92
2022-11-15T03:22:54.246Z,74.25
2022-11-15T03:25:47.394Z,75.33
2022-11-15T03:28:38.366Z,76.56
2022-11-15T03:31:50.083Z,77.02
2022-11-15T03:34:48.213Z,77.39
2022-11-15T03:37:47.266Z,77.30
2022-11-15T03:40:42.163Z,77.53
2022-11-15T03:43:54.687Z,77.17
2022-11-15T03:46:58.112Z,77.44
2022-11-15T03:49:48.610Z,78.06
2022-11-15T03:52:36.212Z,79.03
2022-11-15T03:55:22.708Z,79.08
2022-11-15T03:58:09.305Z,79.24
2022-11-15T04:00:55.426Z,80.07
2022-11-15T04:03:44.973Z,80.64
2022-11-15T04:06:35.434Z,79.97
2022-11-15T04:09:21.675Z,79.89
2022-11-15T04:12:08.078Z,79.63
2022-11-15T04:15:09.090Z,77.70
2022-11-15T04:17:57.049Z,77.74
2022-11-15T04:21:01.854Z,78.26
2022-11-15T04:24:09.682Z,78.93
2022-11-15T04:26:59.365Z,79.89
2022-11-15T04:29:45.295Z,79.96
2022-11-15T04:32:32.629Z,79.96
2022-11-15T04:35:18.850Z,80.00
2022-11-15T04:38:07.455Z,80.45
2022-11-15T04:40:53.904Z,81.27
2022-11-15T04:43:43.472Z,79.62
2022-11-15T04:46:29.917Z,79.69
2022-11-15T04:49:16.349Z,80.25
2022-11-15T04:52:02.629Z,80.34
2022-11-15T04:54:48.743Z,80.76
2022-11-15T04:57:34.934Z,81.05
2022-11-15T05:00:21.155Z,80.47
2022-11-15T05:03:29.977Z,80.60
2022-11-15T05:06:16.151Z,80.49
2022-11-15T05:09:02.361Z,80.45
2022-11-15T05:11:49.115Z,80.91
2022-11-15T05:14:35.266Z,81.26
2022-11-15T05:17:21.410Z,81.65
2022-11-15T05:20:08.253Z,82.29
2022-11-15T05:22:57.488Z,82.22
2022-11-15T05:25:44.055Z,81.62
2022-11-15T05:28:34.077Z,81.46
2022-11-15T05:31:20.638Z,80.57
2022-11-15T05:34:07.428Z,79.42
2022-11-15T05:36:56.877Z,79.00
2022-11-15T05:39:45.856Z,79.90
2022-11-15T05:42:32.356Z,79.93
2022-11-15T05:45:23.899Z,79.58
2022-11-15T05:48:13.570Z,79.13
2022-11-15T05:51:00.694Z,78.47
2022-11-15T05:53:47.829Z,78.53
2022-11-15T05:56:34.312Z,78.71
2022-11-15T05:59:21.093Z,77.55
2022-11-15T06:02:07.582Z,76.38
2022-11-15T06:04:56.678Z,74.80
2022-11-15T06:07:42.797Z,73.46
2022-11-15T06:10:28.741Z,73.88
2022-11-15T06:13:14.955Z,75.13
2022-11-15T06:16:01.387Z,74.70
2022-11-15T06:18:47.784Z,74.15
2022-11-15T06:21:33.943Z,73.73
2022-11-15T06:24:20.335Z,73.77
2022-11-15T06:27:06.872Z,74.20
2022-11-15T06:29:53.160Z,73.89
2022-11-15T06:32:39.475Z,74.27
2022-11-15T06:35:26.080Z,73.87
2022-11-15T06:38:12.897Z,73.61
2022-11-15T06:41:07.762Z,73.35
2022-11-15T06:43:54.068Z,73.37
2022-11-15T06:46:40.869Z,73.84
2022-11-15T06:49:30.200Z,73.42
2022-11-15T06:52:16.512Z,72.48
2022-11-15T06:55:02.798Z,72.86
2022-11-15T06:57:53.699Z,72.49
2022-11-15T07:00:40.372Z,72.65
2022-11-15T07:03:26.654Z,72.36
2022-11-15T07:06:13.291Z,70.85
2022-11-15T07:08:59.865Z,70.64
2022-11-15T07:11:46.311Z,69.68
2022-11-15T07:14:35.736Z,68.78
2022-11-15T07:17:21.964Z,69.13
2022-11-15T07:20:08.738Z,68.86
2022-11-15T07:23:04.848Z,69.03
2022-11-15T07:25:50.792Z,67.90
2022-11-15T07:28:41.229Z,66.81
2022-11-15T07:31:30.191Z,65.94
2022-11-15T07:34:19.627Z,66.52
2022-11-15T07:37:05.531Z,66.39
2022-11-15T07:39:51.495Z,66.82
2022-11-15T07:42:57.395Z,66.23
2022-11-15T07:45:46.384Z,65.86
2022-11-15T07:48:43.416Z,66.08
2022-11-15T07:51:31.573Z,65.75
2022-11-15T07:54:23.998Z,65.91
2022-11-15T07:57:11.338Z,65.76
2022-11-15T07:59:57.511Z,64.18
2022-11-15T08:02:43.763Z,63.27
2022-11-15T08:05:33.375Z,62.43
2022-11-15T08:08:46.056Z,62.49
2022-11-15T08:11:35.223Z,61.88
2022-11-15T08:14:24.708Z,60.83
2022-11-15T08:17:11.619Z,63.46
2022-11-15T08:19:59.326Z,62.85
2022-11-15T08:23:04.550Z,62.79
2022-11-15T08:25:52.586Z,62.22
2022-11-15T08:28:39.137Z,61.73
2022-11-15T08:31:34.829Z,62.25
2022-11-15T08:34:20.947Z,60.30
2022-11-15T08:37:07.735Z,60.95
2022-11-15T08:39:54.256Z,60.25
2022-11-15T08:42:40.690Z,59.71
2022-11-15T08:45:27.294Z,58.31
2022-11-15T08:48:13.605Z,59.60
2022-11-15T08:51:02.668Z,59.69
2022-11-15T08:53:51.678Z,59.37
2022-11-15T08:56:38.024Z,58.74
2022-11-15T08:59:27.869Z,58.57
2022-11-15T09:02:16.012Z,60.02
2022-11-15T09:05:02.115Z,60.14
2022-11-15T09:07:55.905Z,57.09
2022-11-15T09:10:42.503Z,56.39
2022-11-15T09:13:28.904Z,57.11
2022-11-15T09:16:16.522Z,59.87
2022-11-15T09:19:05.404Z,60.37
2022-11-15T09:21:54.190Z,58.63
2022-11-15T09:24:40.380Z,58.75
2022-11-15T09:27:30.618Z,57.71
2022-11-15T09:30:19.506Z,56.09
2022-11-15T09:33:14.949Z,64.29
2022-11-15T09:36:03.043Z,55.65
2022-11-15T09:38:49.352Z,56.20
2022-11-15T09:41:48.444Z,55.87
2022-11-15T09:44:56.978Z,57.17
2022-11-15T09:48:29.342Z,55.42
2022-11-15T09:51:03.494Z,76.80
2022-11-15T09:54:18.607Z,58.26
2022-11-15T09:56:32.990Z,56.61
2022-11-15T09:59:10.657Z,55.31
2022-11-15T10:01:45.902Z,56.89
2022-11-15T10:04:15.821Z,57.22
2022-11-15T10:07:02.903Z,57.04
2022-11-15T10:09:40.055Z,56.99
2022-11-15T10:12:10.356Z,57.54
2022-11-15T10:14:38.646Z,55.32
2022-11-15T10:17:41.710Z,57.53
2022-11-15T10:20:23.325Z,57.17
2022-11-15T10:23:02.267Z,58.47
2022-11-15T10:25:32.650Z,58.95
2022-11-15T10:28:24.665Z,56.90
2022-11-15T10:30:58.653Z,57.01
2022-11-15T10:33:42.145Z,64.16
2022-11-15T10:36:10.395Z,56.96
2022-11-15T10:38:54.175Z,57.61
2022-11-15T10:41:28.591Z,56.96
2022-11-15T10:44:12.484Z,57.05
2022-11-15T10:46:47.745Z,56.83
2022-11-15T10:49:20.202Z,57.87
2022-11-15T10:51:54.707Z,57.68
2022-11-15T10:54:53.731Z,58.38
2022-11-15T10:57:34.233Z,57.97
2022-11-15T11:00:21.226Z,64.27
2022-11-15T11:03:34.648Z,58.00
2022-11-15T11:06:10.590Z,65.98
2022-11-15T11:08:53.902Z,59.18
2022-11-15T11:11:21.688Z,56.88
2022-11-15T11:13:49.944Z,57.52
2022-11-15T11:16:41.869Z,63.56
2022-11-15T11:19:25.529Z,57.92
2022-11-15T11:22:29.790Z,63.33
2022-11-15T11:25:18.343Z,58.99
2022-11-15T11:27:55.715Z,58.82
2022-11-15T11:30:33.749Z,60.13
2022-11-15T11:33:10.361Z,58.91
2022-11-15T11:36:01.514Z,59.69
2022-11-15T11:38:56.287Z,59.52
2022-11-15T11:41:40.750Z,59.66
2022-11-15T11:44:23.110Z,61.14
2022-11-15T11:47:05.674Z,68.40
2022-11-15T11:49:55.531Z,60.49
2022-11-15T11:52:28.373Z,70.91
2022-11-15T11:55:21.725Z,59.13
2022-11-15T11:58:00.110Z,59.02
2022-11-15T12:00:29.844Z,61.13
2022-11-15T12:03:21.302Z,64.04
2022-11-15T12:06:01.296Z,72.11
2022-11-15T12:08:41.805Z,59.47
2022-11-15T12:11:24.529Z,61.14
2022-11-15T12:14:01.565Z,63.01
2022-11-15T12:16:32.252Z,63.04
2022-11-15T12:19:03.976Z,60.22
2022-11-15T12:21:31.749Z,60.83
2022-11-15T12:24:10.048Z,72.68
2022-11-15T12:26:51.583Z,66.09
2022-11-15T12:29:29.857Z,60.78
2022-11-15T12:32:02.087Z,61.00
2022-11-15T12:34:29.783Z,61.75
2022-11-15T12:36:57.689Z,69.57
2022-11-15T12:40:04.292Z,61.56
2022-11-15T12:42:32.643Z,65.94
2022-11-15T12:45:01.035Z,61.77
2022-11-15T12:47:31.654Z,69.37
2022-11-15T12:49:59.759Z,62.17
2022-11-15T12:52:27.985Z,62.13
2022-11-15T12:54:58.896Z,63.18
2022-11-15T12:57:30.545Z,63.38
2022-11-15T13:00:08.151Z,70.78
2022-11-15T13:02:46.826Z,63.94
2022-11-15T13:05:17.474Z,64.49
2022-11-15T13:07:45.854Z,64.04
2022-11-15T13:10:31.038Z,64.62
2022-11-15T13:13:10.019Z,65.90
2022-11-15T13:15:57.918Z,65.54
2022-11-15T13:18:41.915Z,66.56
2022-11-15T13:21:41.210Z,66.76
2022-11-15T13:24:15.082Z,67.29
2022-11-15T13:26:43.453Z,66.87
2022-11-15T13:29:18.523Z,67.91
2022-11-15T13:31:47.731Z,67.99
2022-11-15T13:37:22.160Z,70.14
2022-11-15T13:39:51.191Z,69.38
2022-11-15T13:42:21.125Z,69.15
2022-11-15T13:45:00.283Z,69.24
2022-11-15T13:47:30.265Z,69.95
2022-11-15T13:50:09.616Z,70.12
2022-11-15T13:52:44.765Z,71.51
2022-11-15T13:55:20.300Z,71.52
2022-11-15T13:57:55.410Z,72.33
2022-11-15T14:00:35.896Z,72.94
2022-11-15T14:03:16.135Z,73.83
2022-11-15T14:05:44.457Z,78.76
2022-11-15T14:08:21.721Z,72.90
2022-11-15T14:10:49.550Z,72.55
2022-11-15T14:13:30.783Z,73.35
2022-11-15T14:16:21.904Z,73.89
2022-11-15T14:18:53.054Z,74.72
2022-11-15T14:21:22.077Z,75.60
2022-11-15T14:23:54.027Z,76.18
2022-11-15T14:26:34.408Z,76.61
2022-11-15T14:29:25.396Z,76.46
2022-11-15T14:31:54.296Z,77.78
2022-11-15T14:34:23.520Z,79.53
2022-11-15T14:36:51.433Z,79.26
2022-11-15T14:39:19.569Z,78.54
2022-11-15T14:41:47.804Z,79.28
2022-11-15T14:44:19.837Z,80.50
2022-11-15T14:46:49.410Z,81.15
2022-11-15T14:49:20.192Z,80.56
2022-11-15T14:51:48.481Z,80.99
2022-11-15T14:54:18.705Z,82.07
2022-11-15T14:56:46.700Z,82.67
2022-11-15T14:59:15.238Z,83.70
2022-11-15T15:01:45.091Z,84.71
2022-11-15T15:04:23.864Z,83.63
2022-11-15T15:06:52.006Z,83.58
2022-11-15T15:09:19.986Z,84.44
2022-11-15T15:11:48.101Z,85.88
2022-11-15T15:14:19.455Z,87.93
2022-11-15T15:17:03.930Z,87.53
2022-11-15T15:19:35.184Z,87.25
2022-11-15T15:22:03.066Z,87.44
2022-11-15T15:24:30.977Z,88.67
2022-11-15T15:27:02.517Z,89.39
2022-11-15T15:29:30.392Z,88.34
2022-11-15T15:31:58.271Z,88.24
2022-11-15T15:34:26.697Z,89.16
2022-11-15T15:37:24.247Z,88.76
2022-11-15T15:39:56.599Z,88.93
2022-11-15T15:42:25.028Z,89.23
2022-11-15T15:44:53.649Z,89.52
2022-11-15T15:47:24.027Z,89.34
2022-11-15T15:49:52.170Z,89.32
2022-11-15T15:52:20.621Z,89.58
2022-11-15T15:54:48.619Z,89.98
2022-11-15T15:57:16.660Z,90.12
2022-11-15T15:59:44.836Z,90.64
2022-11-15T16:02:16.187Z,90.54
2022-11-15T16:04:44.432Z,90.72
2022-11-15T16:07:22.593Z,90.76
2022-11-15T16:10:03.821Z,90.99
2022-11-15T16:12:36.394Z,91.96
2022-11-15T16:15:05.227Z,90.22
2022-11-15T16:17:42.269Z,88.94
2022-11-15T16:20:22.295Z,88.81
2022-11-15T16:22:50.269Z,89.99
2022-11-15T16:25:21.725Z,90.27
2022-11-15T16:27:49.958Z,89.65
2022-11-15T16:30:21.099Z,89.37
2022-11-15T16:32:49.569Z,91.61
2022-11-15T16:35:18.935Z,92.05
2022-11-15T16:37:47.693Z,91.16
2022-11-15T16:40:30.394Z,91.18
2022-11-15T16:43:03.248Z,90.65
2022-11-15T16:45:32.192Z,91.07
2022-11-15T16:48:00.661Z,92.31
2022-11-15T16:50:31.761Z,89.97
2022-11-15T16:53:00.297Z,91.24
2022-11-15T16:55:30.899Z,92.12
2022-11-15T16:57:59.015Z,92.90
2022-11-15T17:00:27.767Z,93.45
2022-11-15T17:03:00.428Z,91.31
2022-11-15T17:05:28.674Z,91.65
2022-11-15T17:07:57.035Z,92.57
2022-11-15T17:10:26.603Z,91.31
2022-11-15T17:12:56.273Z,89.83
2022-11-15T17:15:25.695Z,91.12
2022-11-15T17:17:54.849Z,92.72
2022-11-15T17:20:24.744Z,91.76
2022-11-15T17:22:53.584Z,92.94
2022-11-15T17:25:21.702Z,92.29
2022-11-15T17:27:50.420Z,92.55
2022-11-15T17:30:20.479Z,93.17
2022-11-15T17:32:50.434Z,93.13
2022-11-15T17:35:20.570Z,93.18
2022-11-15T17:37:49.021Z,92.50
2022-11-15T17:40:21.067Z,92.37
2022-11-15T17:42:49.666Z,91.91
2022-11-15T17:45:18.369Z,90.54
2022-11-15T17:47:50.059Z,89.81
2022-11-15T17:50:24.616Z,92.19
2022-11-15T17:52:53.162Z,91.84
2022-11-15T17:55:22.346Z,91.61
2022-11-15T17:57:50.196Z,91.36
2022-11-15T18:00:21.231Z,89.72
2022-11-15T18:02:52.550Z,90.09
2022-11-15T18:05:20.586Z,91.65
2022-11-15T18:07:48.410Z,91.20
2022-11-15T18:10:16.909Z,92.72
2022-11-15T18:12:44.900Z,92.47
2022-11-15T18:15:12.729Z,91.02
2022-11-15T18:17:41.089Z,90.28
2022-11-15T18:20:10.389Z,92.45
2022-11-15T18:22:41.278Z,90.79
2022-11-15T18:25:09.792Z,93.30
2022-11-15T18:27:38.618Z,90.69
2022-11-15T18:30:10.232Z,90.08
2022-11-15T18:32:38.604Z,91.35
2022-11-15T18:35:07.134Z,91.82
2022-11-15T18:37:37.994Z,92.17
2022-11-15T18:40:06.960Z,92.40
2022-11-15T18:42:41.757Z,91.18
2022-11-15T18:45:11.305Z,92.05
2022-11-15T18:47:39.343Z,91.78
2022-11-15T18:50:07.866Z,90.17
2022-11-15T18:52:36.550Z,91.11
2022-11-15T18:55:04.747Z,90.70
2022-11-15T18:57:33.033Z,92.38
2022-11-15T19:00:01.393Z,91.93
2022-11-15T19:02:31.498Z,91.27
2022-11-15T19:04:59.436Z,90.95
2022-11-15T19:07:28.115Z,90.38
2022-11-15T19:09:56.516Z,90.40
2022-11-15T19:12:27.282Z,91.36
2022-11-15T19:14:55.685Z,91.62
2022-11-15T19:17:23.505Z,93.44
2022-11-15T19:19:54.766Z,91.17
2022-11-15T19:22:23.093Z,91.46
2022-11-15T19:24:51.225Z,91.62
2022-11-15T19:27:19.534Z,91.04
2022-11-15T19:29:47.923Z,90.91
2022-11-15T19:32:16.146Z,92.38
2022-11-15T19:34:44.291Z,91.01
2022-11-15T19:37:12.725Z,91.90
2022-11-15T19:39:41.418Z,89.61
2022-11-15T19:42:09.639Z,89.91
2022-11-15T19:44:38.609Z,90.78
2022-11-15T19:47:09.557Z,91.59
2022-11-15T19:49:38.793Z,90.81
2022-11-15T19:52:07.355Z,90.23
2022-11-15T19:54:35.357Z,91.56
2022-11-15T19:57:03.645Z,92.41
2022-11-15T19:59:31.311Z,90.85
2022-11-15T20:01:59.093Z,90.83
2022-11-15T20:04:27.350Z,89.86
2022-11-15T20:06:55.240Z,90.85
2022-11-15T20:09:23.028Z,89.74
2022-11-15T20:11:51.160Z,89.88
2022-11-15T20:14:18.844Z,89.48
2022-11-15T20:16:50.126Z,89.66
2022-11-15T20:19:21.278Z,89.99
2022-11-15T20:21:49.498Z,90.18
2022-11-15T20:24:17.295Z,90.16
2022-11-15T20:26:47.155Z,89.64
2022-11-15T20:29:14.995Z,89.61
2022-11-15T20:31:42.771Z,92.41
2022-11-15T20:34:11.902Z,91.15
2022-11-15T20:39:26.040Z,90.59
2022-11-15T20:41:53.940Z,92.08
2022-11-15T20:44:22.020Z,89.94
2022-11-15T20:46:50.065Z,90.96
2022-11-15T20:49:20.746Z,91.14
2022-11-15T20:51:48.746Z,90.76
2022-11-15T20:54:24.720Z,90.53
2022-11-15T20:56:52.546Z,90.11
2022-11-15T20:59:23.924Z,90.34
2022-11-15T21:01:51.801Z,90.59
2022-11-15T21:04:20.406Z,89.95
2022-11-15T21:06:49.032Z,90.84
2022-11-15T21:09:35.705Z,90.11
2022-11-15T21:12:16.392Z,89.58
2022-11-15T21:14:49.483Z,91.01
2022-11-15T21:17:17.866Z,90.64
2022-11-15T21:19:47.578Z,90.97
2022-11-15T21:22:16.089Z,90.86
2022-11-15T21:24:44.272Z,90.33
2022-11-15T21:27:12.418Z,91.64
2022-11-15T21:29:40.232Z,92.39
2022-11-15T21:32:09.660Z,91.39
2022-11-15T21:34:41.912Z,90.16
2022-11-15T21:37:16.185Z,92.18
2022-11-15T21:39:47.741Z,90.71
2022-11-15T21:42:19.116Z,90.69
2022-11-15T21:44:47.486Z,89.52
2022-11-15T21:47:15.501Z,90.12
2022-11-15T21:49:43.735Z,91.52
2022-11-15T21:52:11.590Z,89.99
2022-11-15T21:54:44.785Z,89.64
2022-11-15T21:57:13.899Z,92.16
2022-11-15T22:00:02.166Z,91.15
2022-11-15T22:02:32.536Z,90.27
2022-11-15T22:05:01.395Z,91.34
2022-11-15T22:07:30.544Z,91.25
2022-11-15T22:09:59.188Z,90.42
2022-11-15T22:12:29.818Z,92.00
2022-11-15T22:14:57.832Z,91.23
2022-11-15T22:17:46.099Z,90.90
2022-11-15T22:20:42.914Z,92.42
2022-11-15T22:23:05.618Z,91.14
2022-11-15T22:25:36.890Z,91.27
2022-11-15T22:28:04.993Z,92.68
2022-11-15T22:30:33.388Z,90.61
2022-11-15T22:33:01.419Z,91.67
2022-11-15T22:35:34.130Z,92.12
2022-11-15T22:38:02.467Z,91.98
2022-11-15T22:40:30.375Z,92.14
2022-11-15T22:43:00.611Z,90.14
2022-11-15T22:45:29.264Z,92.85
2022-11-15T22:47:57.284Z,91.78
2022-11-15T22:50:28.261Z,90.99
2022-11-15T22:52:56.649Z,93.90
2022-11-15T22:55:24.652Z,93.03
2022-11-15T22:57:52.731Z,92.54
2022-11-15T23:00:21.118Z,91.91
2022-11-15T23:02:53.227Z,91.68
2022-11-15T23:05:23.528Z,91.66
2022-11-15T23:07:56.044Z,91.27
2022-11-15T23:10:50.437Z,91.53
2022-11-15T23:17:26.904Z,89.83
2022-11-15T23:19:54.883Z,93.67
2022-11-15T23:22:44.316Z,93.27
2022-11-15T23:25:12.246Z,92.63
2022-11-15T23:27:40.625Z,93.21
2022-11-15T23:30:27.589Z,91.39
2022-11-15T23:33:14.953Z,92.94
2022-11-15T23:35:42.855Z,92.07
2022-11-15T23:38:11.260Z,91.88
2022-11-15T23:40:39.099Z,89.73
2022-11-15T23:43:06.998Z,91.59
2022-11-15T23:45:38.473Z,91.89
2022-11-15T23:48:06.746Z,91.45
2022-11-15T23:50:34.992Z,90.16
2022-11-15T23:53:04.042Z,91.85
2022-11-15T23:55:35.159Z,91.44
2022-11-15T23:58:03.428Z,91.03
